Strona główna
METAR-TAF:

METAR-TAF

Lotnisko :

Thule, Grenlandia

Szerokość geograficzna: 76-32N, Długość geograficzna: 068-42W, wysokość: 77 m

Aktualna obserwacja pogody

Raport powstał 16 minut temu, godzina 13:56 UTC
Wiatr 8 kt od wschodnio-południowy wschód
Temperatura -7°C
Wilgotność 62%
Ciśnienie 996 hPa
Widzialność 10 km lub więcej
bezchmurnie

METAR: BGTL 241356Z AUTO 12008KT 9999 CLR M07/M13 A2942 RMK AO2 SLP950 T10691130 TSNO $

czas: 11:12 (14:12 UTC)

Prognoza

Raport powstał 5 godziny i 12 minut temu, godzina 09:00 UTC
Prognoza ważna od 24 godzina 09 UTC do 25 godzina 15 UTC
Wiatr 9 kt od południowy wschód
Widzialność 10 km lub więcej
Mało chmury na wysokości 8500 ft

TAF: BGTL 240900Z 2409/2515 13009KT 9999 FEW085 QNH2940INS TXM08/2411Z TNM12/2500Z

Obserwacja i prognoza pogody dla ponad 4000 lotnisk (raport METAR i TAF).

Dostępne stacje oznaczono żółtymi i czerwonymi punktami na mapie.

Najedź kursorem aby zobaczyć nazwę stacji.

Kliknij aby zobaczyć obserwacje i prognozy pogody.

Aby zmienić mapę: kliknij na zielony przycisk z czarnym krzyżykiem, aby powiększyć; na zielony przycisk z myślnikiem, aby pomniejszyć; na zielone strzałki, aby przejść do map sąsiednich.


METAR-TAF: